Weather reports worldwide

Advertisment
Manchester/Intl, United Kingdom (3334): temperature & dewpoint: 18.06.2017 04:00:00 - 24.06.2017 04:00:00 (BST)Manchester/Intl, United Kingdom (3334): wind speed: 18.06.2017 04:00:00 - 24.06.2017 04:00:00 (BST)Manchester/Intl, United Kingdom (3334): wind direction: 18.06.2017 04:00:00 - 24.06.2017 04:00:00 (BST)Manchester/Intl, United Kingdom (3334): visibility: 18.06.2017 04:00:00 - 24.06.2017 04:00:00 (BST)
Date & Time tt [°C] td [°C] ff [km/h] ff [kn] dd vv [km]
24.06.2017 04:00:00 14,0 12,0 16 9 W 10
24.06.2017 03:00:00 14,0 13,0 11 6 WSW 10
24.06.2017 02:00:00 14,0 13,0 21 11 W 3,9
24.06.2017 01:00:00 16,0 14,0 21 11 WSW 10
24.06.2017 00:00:00 17,0 13,0 24 13 SW 10
23.06.2017 23:00:00 17,0 13,0 15 8 SW 10
23.06.2017 22:00:00 17,0 13,0 21 11 SW 10
23.06.2017 21:00:00 17,0 13,0 18 10 SW 10
23.06.2017 20:00:00 17,0 13,0 28 15 WSW 10
23.06.2017 19:00:00 17,0 13,0 28 15 WSW 10
23.06.2017 18:00:00 18,0 13,0 28 15 WSW 10
23.06.2017 17:00:00 18,0 13,0 24 13 WSW 10
23.06.2017 16:00:00 18,0 13,0 15 8 SW 10
23.06.2017 15:00:00 18,0 14,0 18 10 SW 10
23.06.2017 14:00:00 17,0 13,0 13 7 SW 10
23.06.2017 13:00:00 17,0 13,0 18 10 SW 10
23.06.2017 12:00:00 17,0 13,0 15 8 SW 10
23.06.2017 11:00:00 17,0 12,0 21 11 SW 10
23.06.2017 10:00:00 16,0 12,0 15 8 SW 10
23.06.2017 09:00:00 15,0 12,0 13 7 SW 10
23.06.2017 08:00:00 15,0 11,0 13 7 SSW 10
23.06.2017 07:00:00 14,0 11,0 11 6 SSW 10
23.06.2017 06:00:00 14,0 11,0 13 7 SSW 10
23.06.2017 05:00:00 14,0 11,0 15 8 SSW 10
23.06.2017 04:00:00 14,0 11,0 11 6 SSW 10
23.06.2017 03:00:00 14,0 11,0 11 6 SSW 10
23.06.2017 02:00:00 14,0 11,0 11 6 SSW 10
23.06.2017 01:00:00 14,0 11,0 11 6 SSW 10
23.06.2017 00:00:00 13,0 11,0 8 4 S 10
22.06.2017 23:00:00 13,0 11,0 5 3 - 10
22.06.2017 22:00:00 15,0 11,0 2 1 - 10
22.06.2017 21:00:00 16,0 11,0 11 6 W 10
22.06.2017 20:00:00 16,0 11,0 16 9 WNW 10
22.06.2017 19:00:00 17,0 11,0 18 10 WNW 10
22.06.2017 18:00:00 17,0 11,0 21 11 W 10
22.06.2017 17:00:00 17,0 11,0 22 12 W 10
22.06.2017 16:00:00 17,0 12,0 24 13 W 10
22.06.2017 15:00:00 17,0 12,0 22 12 W 10
22.06.2017 14:00:00 17,0 13,0 18 10 W 10
22.06.2017 13:00:00 16,0 13,0 16 9 WNW 10
22.06.2017 12:00:00 15,0 14,0 16 9 W 10
22.06.2017 11:00:00 16,0 14,0 15 8 WNW 3,0
22.06.2017 10:00:00 16,0 14,0 11 6 WNW 10
22.06.2017 09:00:00 16,0 14,0 15 8 WSW 3,0
22.06.2017 08:00:00 17,0 13,0 11 6 SW 10
22.06.2017 07:00:00 17,0 15,0 9 5 WSW 10
22.06.2017 06:00:00 17,0 15,0 5 3 W 9
22.06.2017 05:00:00 17,0 15,0 8 4 W 7
22.06.2017 04:00:00 18,0 16,0 16 9 WNW 3,9
22.06.2017 03:00:00 18,0 16,0 8 4 WSW 7
22.06.2017 02:00:00 20,0 16,0 8 4 SW 10
22.06.2017 01:00:00 22,0 19,0 8 4 S 10
22.06.2017 00:00:00 23,0 20,0 11 6 S 10
21.06.2017 23:00:00 24,0 20,0 8 4 S 10
21.06.2017 22:00:00 25,0 20,0 4 2 - 10
21.06.2017 21:00:00 25,0 20,0 5 3 - 10
21.06.2017 20:00:00 24,0 20,0 5 3 - 10
21.06.2017 19:00:00 26,0 19,0 8 4 SSE 10
21.06.2017 18:00:00 26,0 18,0 9 5 SE 10
21.06.2017 17:00:00 25,0 17,0 8 4 ESE 10
21.06.2017 16:00:00 26,0 14,0 8 4 S 10
21.06.2017 15:00:00 27,0 17,0 8 4 SE 10
21.06.2017 14:00:00 27,0 18,0 8 4 SE 10
21.06.2017 13:00:00 24,0 17,0 8 4 SE 10
21.06.2017 12:00:00 23,0 17,0 9 5 SSW 10
21.06.2017 11:00:00 22,0 17,0 8 4 S 10
21.06.2017 10:00:00 21,0 16,0 9 5 SSE 10
21.06.2017 09:00:00 19,0 15,0 9 5 S 10
21.06.2017 08:00:00 18,0 14,0 13 7 W 10
21.06.2017 07:00:00 16,0 13,0 5 3 - 10
21.06.2017 06:00:00 15,0 13,0 2 1 - 10
21.06.2017 05:00:00 15,0 13,0 4 2 - 10
21.06.2017 04:00:00 15,0 13,0 4 2 E 10
21.06.2017 03:00:00 16,0 14,0 5 3 - 10
21.06.2017 02:00:00 16,0 14,0 8 4 E 10
21.06.2017 01:00:00 16,0 14,0 2 1 ENE 9
21.06.2017 00:00:00 16,0 14,0 4 2 - 8
20.06.2017 23:00:00 17,0 15,0 9 5 E 10
20.06.2017 22:00:00 18,0 15,0 13 7 E 10
20.06.2017 21:00:00 19,0 15,0 8 4 E 10
20.06.2017 20:00:00 20,0 15,0 11 6 ENE 10
20.06.2017 19:00:00 21,0 16,0 13 7 ENE 10
20.06.2017 18:00:00 22,0 16,0 13 7 E 10
20.06.2017 17:00:00 23,0 16,0 15 8 E 10
20.06.2017 16:00:00 23,0 16,0 11 6 E 10
20.06.2017 15:00:00 24,0 16,0 9 5 E 10
20.06.2017 14:00:00 24,0 15,0 9 5 E 10
20.06.2017 13:00:00 24,0 16,0 9 5 E 10
20.06.2017 12:00:00 23,0 16,0 8 4 E 10
20.06.2017 11:00:00 22,0 15,0 5 3 - 10
20.06.2017 10:00:00 21,0 15,0 5 3 - 10
20.06.2017 09:00:00 20,0 15,0 9 5 NNE 10
20.06.2017 08:00:00 19,0 14,0 13 7 NE 10
20.06.2017 07:00:00 18,0 14,0 11 6 NE 10
20.06.2017 06:00:00 18,0 14,0 9 5 NE 10
20.06.2017 05:00:00 18,0 15,0 8 4 WNW 10
20.06.2017 04:00:00 17,0 15,0 5 3 - 10
20.06.2017 03:00:00 18,0 15,0 8 4 WSW 10
20.06.2017 02:00:00 19,0 15,0 8 4 WSW 10
20.06.2017 01:00:00 19,0 15,0 5 3 - 10
20.06.2017 00:00:00 20,0 15,0 8 4 W 10
19.06.2017 23:00:00 21,0 14,0 11 6 WNW 10
19.06.2017 22:00:00 22,0 15,0 11 6 WNW 10
19.06.2017 21:00:00 24,0 14,0 11 6 NW 10
19.06.2017 20:00:00 25,0 14,0 16 9 NW 10
19.06.2017 19:00:00 26,0 15,0 21 11 NW 10
19.06.2017 18:00:00 27,0 16,0 16 9 NW 10
19.06.2017 17:00:00 28,0 16,0 11 6 WNW 10
19.06.2017 16:00:00 28,0 16,0 11 6 W 10
19.06.2017 15:00:00 28,0 16,0 11 6 W 10
19.06.2017 14:00:00 28,0 16,0 8 4 - 10
19.06.2017 13:00:00 27,0 17,0 5 3 - 10
19.06.2017 12:00:00 27,0 16,0 5 3 - 10
19.06.2017 11:00:00 25,0 15,0 5 3 - 10
19.06.2017 10:00:00 24,0 16,0 4 2 - 10
19.06.2017 09:00:00 23,0 16,0 4 2 - 10
19.06.2017 08:00:00 21,0 15,0 4 2 - 10
19.06.2017 07:00:00 17,0 14,0 4 2 SSE 10
19.06.2017 06:00:00 15,0 14,0 2 1 - 10
19.06.2017 05:00:00 14,0 13,0 4 2 - 10
19.06.2017 04:00:00 15,0 13,0 2 1 - 10
19.06.2017 03:00:00 15,0 13,0 2 1 - 10
19.06.2017 02:00:00 16,0 13,0 4 2 - 10
19.06.2017 01:00:00 19,0 13,0 2 1 - 10
19.06.2017 00:00:00 21,0 13,0 4 2 WSW 10
18.06.2017 23:00:00 21,0 13,0 8 4 NNW 10
18.06.2017 22:00:00 22,0 13,0 9 5 NW 10
18.06.2017 21:00:00 24,0 13,0 11 6 NW 10
18.06.2017 20:00:00 25,0 14,0 11 6 WNW 10
18.06.2017 19:00:00 26,0 14,0 13 7 NW 10
18.06.2017 18:00:00 27,0 15,0 16 9 NW 10
18.06.2017 17:00:00 27,0 14,0 13 7 WNW 10
18.06.2017 16:00:00 27,0 14,0 9 5 WNW 10
18.06.2017 15:00:00 27,0 14,0 11 6 WNW 10
18.06.2017 14:00:00 26,0 15,0 5 3 - 10
18.06.2017 13:00:00 25,0 15,0 11 6 WSW 10
18.06.2017 12:00:00 24,0 14,0 9 5 SW 10
18.06.2017 11:00:00 23,0 14,0 4 2 - 10
18.06.2017 10:00:00 21,0 13,0 5 3 - 10
18.06.2017 09:00:00 20,0 13,0 5 3 - 10
18.06.2017 08:00:00 18,0 12,0 4 2 - 10
18.06.2017 07:00:00 16,0 11,0 4 2 - 10
18.06.2017 06:00:00 14,0 12,0 4 2 SE 10
18.06.2017 05:00:00 13,0 11,0 5 3 SSE 10
18.06.2017 04:00:00 12,0 11,0 2 1 - 10

tt = temperature
td = dewpoint
ff = wind speed
dd = wind direction
vv = visibility

Next stations